createdAt,value
2019-02-09T00:00:30.164Z,1.40
2019-02-09T00:02:58.839Z,1.50
2019-02-09T00:05:27.334Z,1.50
2019-02-09T00:07:55.806Z,1.50
2019-02-09T00:10:24.311Z,1.60
2019-02-09T00:12:52.842Z,1.60
2019-02-09T00:15:21.492Z,1.70
2019-02-09T00:17:50.029Z,1.70
2019-02-09T00:20:19.560Z,1.70
2019-02-09T00:22:48.010Z,1.80
2019-02-09T00:25:18.323Z,1.90
2019-02-09T00:27:47.585Z,1.90
2019-02-09T00:30:17.856Z,2.00
2019-02-09T00:32:46.492Z,2.10
2019-02-09T00:35:16.513Z,2.10
2019-02-09T00:37:45.058Z,2.20
2019-02-09T00:40:19.503Z,2.30
2019-02-09T00:42:48.153Z,2.40
2019-02-09T00:45:24.502Z,2.60
2019-02-09T00:47:53.017Z,2.90
2019-02-09T00:50:21.885Z,3.10
2019-02-09T00:52:50.489Z,3.40
2019-02-09T00:55:24.642Z,3.50
2019-02-09T00:57:53.270Z,3.60
2019-02-09T01:00:26.929Z,3.70
2019-02-09T01:02:55.498Z,3.80
2019-02-09T01:05:29.982Z,3.90
2019-02-09T01:07:58.519Z,4.00
2019-02-09T01:10:29.303Z,4.00
2019-02-09T01:12:58.250Z,4.10
2019-02-09T01:15:27.154Z,4.10
2019-02-09T01:17:55.838Z,4.10
2019-02-09T01:20:26.524Z,4.10
2019-02-09T01:22:57.301Z,4.20
2019-02-09T01:25:27.053Z,4.10
2019-02-09T01:27:55.638Z,4.20
2019-02-09T01:30:26.200Z,4.20
2019-02-09T01:32:54.800Z,4.20
2019-02-09T01:35:23.798Z,4.10
2019-02-09T01:37:52.796Z,4.20
2019-02-09T01:40:24.371Z,4.20
2019-02-09T01:42:52.959Z,4.30
2019-02-09T01:45:29.690Z,4.30
2019-02-09T01:47:58.312Z,4.50
2019-02-09T01:50:31.694Z,4.60
2019-02-09T01:53:00.319Z,4.70
2019-02-09T01:55:29.503Z,4.80
2019-02-09T01:57:58.911Z,4.80
2019-02-09T02:00:35.883Z,4.70
2019-02-09T02:03:05.090Z,4.70
2019-02-09T02:05:33.787Z,4.60
2019-02-09T02:08:02.314Z,4.50
2019-02-09T02:10:33.910Z,4.60
2019-02-09T02:13:03.113Z,4.60
2019-02-09T02:15:32.291Z,4.60
2019-02-09T02:18:01.028Z,4.50
2019-02-09T02:20:31.484Z,4.50
2019-02-09T02:23:00.149Z,4.50
2019-02-09T02:25:28.793Z,4.20
2019-02-09T02:27:57.284Z,4.10
2019-02-09T02:30:37.470Z,4.00
2019-02-09T02:33:07.259Z,3.80
2019-02-09T02:35:36.803Z,3.70
2019-02-09T02:38:05.709Z,3.60
2019-02-09T02:40:34.218Z,3.50
2019-02-09T02:43:02.686Z,3.40
2019-02-09T02:45:31.262Z,3.30
2019-02-09T02:47:59.850Z,3.20
2019-02-09T02:50:28.483Z,3.10
2019-02-09T02:52:56.980Z,3.00
2019-02-09T02:55:30.027Z,3.00
2019-02-09T02:57:58.607Z,3.10
2019-02-09T03:00:33.016Z,3.10
2019-02-09T03:03:02.294Z,3.10
2019-02-09T03:05:31.132Z,3.10
2019-02-09T03:07:59.741Z,3.00
2019-02-09T03:10:28.378Z,2.90
2019-02-09T03:12:56.945Z,3.00
2019-02-09T03:15:33.623Z,3.00
2019-02-09T03:18:02.188Z,2.90
2019-02-09T03:20:30.916Z,2.80
2019-02-09T03:22:59.621Z,2.80
2019-02-09T03:25:33.528Z,2.70
2019-02-09T03:28:02.060Z,2.60
2019-02-09T03:30:31.047Z,2.50
2019-02-09T03:32:59.725Z,2.40
2019-02-09T03:35:28.440Z,2.30
2019-02-09T03:37:57.030Z,2.20
2019-02-09T03:40:28.930Z,2.20
2019-02-09T03:42:57.569Z,2.10
2019-02-09T03:45:33.712Z,2.10
2019-02-09T03:48:02.994Z,2.10
2019-02-09T03:50:32.584Z,2.10
2019-02-09T03:53:01.620Z,2.10
2019-02-09T03:55:30.382Z,2.10
2019-02-09T03:57:58.938Z,2.00
2019-02-09T04:00:29.694Z,2.00
2019-02-09T04:02:58.751Z,2.00
2019-02-09T04:05:27.307Z,2.10
2019-02-09T04:07:55.844Z,2.20
2019-02-09T04:10:28.334Z,2.30
2019-02-09T04:12:56.879Z,2.40
2019-02-09T04:15:26.976Z,2.60
2019-02-09T04:17:55.688Z,2.50
2019-02-09T04:20:25.325Z,2.40
2019-02-09T04:22:54.000Z,2.20
2019-02-09T04:25:23.588Z,2.00
2019-02-09T04:27:52.320Z,2.00
2019-02-09T04:30:25.496Z,1.90
2019-02-09T04:32:54.462Z,1.90
2019-02-09T04:35:23.356Z,1.90
2019-02-09T04:37:52.085Z,2.00
2019-02-09T04:40:22.653Z,2.00
2019-02-09T04:42:51.271Z,2.10
2019-02-09T04:45:19.960Z,2.30
2019-02-09T04:47:48.761Z,2.40
2019-02-09T04:50:17.782Z,2.50
2019-02-09T04:52:46.309Z,2.60
2019-02-09T04:55:20.080Z,2.70
2019-02-09T04:57:48.823Z,2.80
2019-02-09T05:00:19.802Z,2.80
2019-02-09T05:02:48.440Z,2.70
2019-02-09T05:05:16.927Z,2.50
2019-02-09T05:07:45.465Z,2.40
2019-02-09T05:10:16.507Z,2.30
2019-02-09T05:12:45.102Z,2.20
2019-02-09T05:15:15.947Z,2.20
2019-02-09T05:17:44.516Z,2.20
2019-02-09T05:20:15.322Z,2.30
2019-02-09T05:22:43.965Z,2.30
2019-02-09T05:25:14.262Z,2.30
2019-02-09T05:27:42.917Z,2.30
2019-02-09T05:30:22.916Z,2.30
2019-02-09T05:32:51.471Z,2.30
2019-02-09T05:35:20.070Z,2.40
2019-02-09T05:37:48.652Z,2.40
2019-02-09T05:40:25.550Z,2.50
2019-02-09T05:42:54.138Z,2.60
2019-02-09T05:45:28.014Z,2.60
2019-02-09T05:47:56.711Z,2.70
2019-02-09T05:50:25.426Z,2.70
2019-02-09T05:52:53.984Z,2.70
2019-02-09T05:55:22.622Z,2.70
2019-02-09T05:57:51.394Z,2.70
2019-02-09T06:00:24.608Z,2.80
2019-02-09T06:02:53.064Z,2.90
2019-02-09T06:05:21.632Z,3.00
2019-02-09T06:07:50.229Z,3.20
2019-02-09T06:10:19.269Z,3.40
2019-02-09T06:12:47.876Z,3.50
2019-02-09T06:15:19.695Z,3.60
2019-02-09T06:17:48.767Z,3.80
2019-02-09T06:20:23.247Z,3.80
2019-02-09T06:22:52.428Z,4.00
2019-02-09T06:28:13.944Z,4.20
2019-02-09T06:30:54.220Z,4.50
2019-02-09T06:33:35.280Z,4.50
2019-02-09T06:36:16.014Z,4.20
2019-02-09T06:38:56.678Z,4.10
2019-02-09T06:41:37.434Z,4.10
2019-02-09T06:44:17.833Z,4.10
2019-02-09T06:46:58.229Z,4.10
2019-02-09T06:49:39.094Z,4.10
2019-02-09T06:52:19.942Z,3.90
2019-02-09T06:55:01.137Z,3.60
2019-02-09T06:57:42.207Z,3.40
2019-02-09T07:00:23.154Z,3.10
2019-02-09T07:03:04.085Z,2.90
2019-02-09T07:05:45.253Z,2.80
2019-02-09T07:08:25.745Z,2.70
2019-02-09T07:11:06.467Z,2.60
2019-02-09T07:13:47.667Z,2.50
2019-02-09T07:16:28.227Z,2.40
2019-02-09T07:19:09.097Z,2.30
2019-02-09T07:21:47.898Z,2.30
2019-02-09T07:24:35.814Z,2.40
2019-02-09T07:27:23.602Z,2.50
2019-02-09T07:30:32.179Z,2.60
2019-02-09T07:33:20.076Z,2.70
2019-02-09T07:36:01.226Z,2.90
2019-02-09T07:38:41.650Z,3.00
2019-02-09T07:41:22.750Z,3.10
2019-02-09T07:44:03.380Z,3.20
2019-02-09T07:46:42.193Z,3.30
2019-02-09T07:49:29.984Z,3.30
2019-02-09T07:52:18.110Z,3.40
2019-02-09T07:55:26.654Z,3.40
2019-02-09T07:58:14.478Z,3.50
2019-02-09T08:01:02.285Z,3.50
2019-02-09T08:03:50.181Z,3.60
2019-02-09T08:06:38.065Z,3.70
2019-02-09T08:09:25.951Z,3.70
2019-02-09T08:11:54.415Z,3.70
2019-02-09T08:14:42.321Z,3.80
2019-02-09T08:17:30.120Z,3.90
2019-02-09T08:20:38.672Z,3.90
2019-02-09T08:23:26.471Z,4.00
2019-02-09T08:26:14.362Z,4.10
2019-02-09T08:29:02.224Z,4.30
2019-02-09T08:31:50.206Z,4.50
2019-02-09T08:34:38.058Z,4.70
2019-02-09T08:37:25.901Z,4.90
2019-02-09T08:40:14.254Z,5.00
2019-02-09T08:43:02.064Z,5.10
2019-02-09T08:45:49.900Z,5.10
2019-02-09T08:48:37.695Z,5.20
2019-02-09T08:51:25.586Z,5.30
2019-02-09T08:54:13.505Z,5.30
2019-02-09T08:57:01.332Z,5.30
2019-02-09T08:59:49.176Z,5.40
2019-02-09T09:02:36.968Z,5.40
2019-02-09T09:05:24.965Z,5.50
2019-02-09T09:08:12.798Z,5.70
2019-02-09T09:11:01.452Z,5.80
2019-02-09T09:13:30.837Z,6.10
2019-02-09T09:16:11.817Z,6.40
2019-02-09T09:18:52.435Z,6.60
2019-02-09T09:21:33.050Z,6.80
2019-02-09T09:24:14.157Z,6.80
2019-02-09T09:26:55.130Z,6.90
2019-02-09T09:29:35.951Z,6.90
2019-02-09T09:32:16.516Z,7.20
2019-02-09T09:34:56.828Z,7.40
2019-02-09T09:37:37.687Z,7.50
2019-02-09T09:40:18.534Z,7.50
2019-02-09T09:43:06.634Z,7.60
2019-02-09T09:45:54.486Z,7.60
2019-02-09T09:48:42.376Z,7.60
2019-02-09T09:51:30.165Z,7.50
2019-02-09T09:54:17.990Z,7.50
2019-02-09T09:57:05.846Z,7.40
2019-02-09T09:59:53.702Z,7.30
2019-02-09T10:02:22.228Z,7.20
2019-02-09T10:05:10.246Z,7.10
2019-02-09T10:07:58.125Z,7.00
2019-02-09T10:10:26.753Z,6.90
2019-02-09T10:13:14.570Z,6.90
2019-02-09T10:16:02.466Z,6.80
2019-02-09T10:18:50.262Z,6.80
2019-02-09T10:21:38.103Z,6.70
2019-02-09T10:24:25.904Z,6.70
2019-02-09T10:27:13.734Z,6.70
2019-02-09T10:30:01.550Z,6.80
2019-02-09T10:32:49.489Z,6.80
2019-02-09T10:35:37.337Z,6.80
2019-02-09T10:38:25.120Z,6.90
2019-02-09T10:41:05.506Z,7.00
2019-02-09T10:43:46.335Z,7.10
2019-02-09T10:46:27.264Z,7.20
2019-02-09T10:48:55.838Z,7.30
2019-02-09T10:51:43.732Z,7.30
2019-02-09T10:54:12.303Z,7.40
2019-02-09T10:57:00.184Z,7.40
2019-02-09T10:59:48.092Z,7.50
2019-02-09T11:02:35.993Z,7.50
2019-02-09T11:05:23.933Z,7.60
2019-02-09T11:08:11.847Z,7.90
2019-02-09T11:10:59.814Z,8.20
2019-02-09T11:13:47.605Z,8.30
2019-02-09T11:16:35.419Z,8.30
2019-02-09T11:19:23.281Z,8.30
2019-02-09T11:22:11.102Z,8.20
2019-02-09T11:24:58.926Z,8.20
2019-02-09T11:27:46.918Z,8.20
2019-02-09T11:30:34.894Z,8.20
2019-02-09T11:33:22.715Z,8.20
2019-02-09T11:36:10.517Z,8.20
2019-02-09T11:38:51.190Z,8.20
2019-02-09T11:41:31.967Z,8.30
2019-02-09T11:44:12.452Z,8.30
2019-02-09T11:46:52.770Z,8.30
2019-02-09T11:49:31.679Z,8.30
2019-02-09T11:52:19.607Z,8.30
2019-02-09T11:55:28.141Z,8.30
2019-02-09T11:58:16.372Z,8.30
2019-02-09T12:01:05.739Z,8.30
2019-02-09T12:03:34.355Z,8.30
2019-02-09T12:06:02.866Z,8.30
2019-02-09T12:08:50.702Z,8.30
2019-02-09T12:11:38.549Z,8.30
2019-02-09T12:14:26.347Z,8.30
2019-02-09T12:17:14.193Z,8.30
2019-02-09T12:19:42.724Z,8.30
2019-02-09T12:22:30.581Z,8.20
2019-02-09T12:25:39.224Z,8.20
2019-02-09T12:28:27.186Z,8.20
2019-02-09T12:31:15.082Z,8.20
2019-02-09T12:34:02.912Z,8.20
2019-02-09T12:36:50.805Z,8.20
2019-02-09T12:39:31.761Z,8.20
2019-02-09T12:42:12.804Z,8.10
2019-02-09T12:44:53.936Z,8.10
2019-02-09T12:47:34.371Z,8.10
2019-02-09T12:50:15.190Z,8.30
2019-02-09T12:52:43.745Z,8.40
2019-02-09T12:55:31.536Z,8.40
2019-02-09T12:58:19.385Z,8.40
2019-02-09T13:01:07.200Z,8.40
2019-02-09T13:03:55.130Z,8.40
2019-02-09T13:06:42.955Z,8.40
2019-02-09T13:09:30.886Z,8.30
2019-02-09T13:12:18.754Z,8.30
2019-02-09T13:15:25.978Z,8.30
2019-02-09T13:18:13.807Z,8.40
2019-02-09T13:21:01.692Z,8.60
2019-02-09T13:23:30.793Z,8.60
2019-02-09T13:26:18.701Z,8.60
2019-02-09T13:29:06.506Z,8.60
2019-02-09T13:31:35.049Z,8.50
2019-02-09T13:34:22.879Z,8.50
2019-02-09T13:37:10.769Z,8.40
2019-02-09T13:39:58.682Z,8.30
2019-02-09T13:42:27.146Z,8.20
2019-02-09T13:45:35.694Z,8.20
2019-02-09T13:48:23.543Z,8.10
2019-02-09T13:51:04.250Z,8.10
2019-02-09T13:53:45.459Z,8.10
2019-02-09T13:56:13.961Z,8.00
2019-02-09T13:59:01.767Z,8.00
2019-02-09T14:01:49.683Z,8.00
2019-02-09T14:04:37.533Z,8.00
2019-02-09T14:07:25.354Z,7.90
2019-02-09T14:09:53.817Z,7.90
2019-02-09T14:12:41.728Z,7.90
2019-02-09T14:15:30.490Z,7.90
2019-02-09T14:18:18.386Z,7.80
2019-02-09T14:21:06.249Z,7.80
2019-02-09T14:23:54.091Z,7.80
2019-02-09T14:26:41.958Z,7.80
2019-02-09T14:29:29.869Z,7.80
2019-02-09T14:32:17.674Z,7.90
2019-02-09T14:35:06.481Z,7.90
2019-02-09T14:37:54.336Z,7.90
2019-02-09T14:40:42.268Z,7.90
2019-02-09T14:43:30.248Z,7.90
2019-02-09T14:46:18.221Z,7.90
2019-02-09T14:48:59.448Z,7.90
2019-02-09T14:51:40.292Z,8.00
2019-02-09T14:54:08.748Z,8.00
2019-02-09T14:56:57.379Z,8.00
2019-02-09T14:59:45.178Z,8.00
2019-02-09T15:02:33.103Z,8.00
2019-02-09T15:05:21.103Z,8.00
2019-02-09T15:08:09.036Z,8.00
2019-02-09T15:10:56.865Z,8.10
2019-02-09T15:13:44.726Z,8.10
2019-02-09T15:16:33.029Z,8.10
2019-02-09T15:19:20.957Z,8.00
2019-02-09T15:22:09.187Z,8.00
2019-02-09T15:24:56.987Z,8.00
2019-02-09T15:27:44.901Z,7.90
2019-02-09T15:30:32.898Z,7.90
2019-02-09T15:33:01.513Z,7.80
2019-02-09T15:35:49.399Z,7.70
2019-02-09T15:38:37.230Z,7.70
2019-02-09T15:41:25.037Z,7.60
2019-02-09T15:44:12.929Z,7.50
2019-02-09T15:47:00.825Z,7.50
2019-02-09T15:49:29.274Z,7.40
2019-02-09T15:52:17.189Z,7.40
2019-02-09T15:55:25.763Z,7.40
2019-02-09T15:57:54.369Z,7.30
2019-02-09T16:00:42.240Z,7.30
2019-02-09T16:03:30.149Z,7.20
2019-02-09T16:08:52.287Z,7.10
2019-02-09T16:11:40.107Z,7.00
2019-02-09T16:14:28.000Z,7.00
2019-02-09T16:17:16.162Z,6.90
2019-02-09T16:19:56.779Z,6.90
2019-02-09T16:22:37.255Z,6.80
2019-02-09T16:28:30.559Z,6.70
2019-02-09T16:31:10.923Z,6.60
2019-02-09T16:33:52.110Z,6.60
2019-02-09T16:36:33.018Z,6.50
2019-02-09T16:39:13.843Z,6.50
2019-02-09T16:41:54.655Z,6.40
2019-02-09T16:44:35.218Z,6.40
2019-02-09T16:47:16.294Z,6.30
2019-02-09T16:49:57.013Z,6.30
2019-02-09T16:52:37.361Z,6.40
2019-02-09T16:55:18.862Z,6.40
2019-02-09T16:58:00.129Z,6.40
2019-02-09T17:00:40.527Z,6.40
2019-02-09T17:03:21.640Z,6.40
2019-02-09T17:06:02.691Z,6.50
2019-02-09T17:08:43.174Z,6.50
2019-02-09T17:11:23.879Z,6.50
2019-02-09T17:14:04.261Z,6.50
2019-02-09T17:16:45.569Z,6.50
2019-02-09T17:19:26.585Z,6.50
2019-02-09T17:22:07.237Z,6.50
2019-02-09T17:30:45.649Z,6.70
2019-02-09T17:33:26.132Z,6.70
2019-02-09T17:36:06.456Z,6.70
2019-02-09T17:38:47.156Z,6.60
2019-02-09T17:41:27.770Z,6.60
2019-02-09T17:44:08.728Z,6.60
2019-02-09T17:46:49.635Z,6.60
2019-02-09T17:49:30.821Z,6.50
2019-02-09T17:52:11.300Z,6.50
2019-02-09T17:54:52.532Z,6.50
2019-02-09T17:57:33.386Z,6.50
2019-02-09T18:00:01.979Z,6.50
2019-02-09T18:02:30.468Z,6.50
2019-02-09T18:05:18.472Z,6.50
2019-02-09T18:08:06.702Z,6.50
2019-02-09T18:10:54.622Z,6.50
2019-02-09T18:13:23.154Z,6.60
2019-02-09T18:16:10.982Z,6.60
2019-02-09T18:18:58.849Z,6.70
2019-02-09T18:21:46.747Z,6.70
2019-02-09T18:24:34.582Z,6.70
2019-02-09T18:27:22.377Z,6.80
2019-02-09T18:29:50.883Z,6.80
2019-02-09T18:32:38.706Z,6.90
2019-02-09T18:35:26.682Z,6.90
2019-02-09T18:38:14.513Z,6.90
2019-02-09T18:41:02.482Z,6.90
2019-02-09T18:43:43.409Z,7.00
2019-02-09T18:46:24.454Z,6.90
2019-02-09T18:49:03.290Z,6.90
2019-02-09T18:51:31.823Z,6.90
2019-02-09T18:54:19.666Z,6.90
2019-02-09T18:57:07.516Z,6.80
2019-02-09T18:59:55.421Z,6.80
2019-02-09T19:02:43.303Z,6.80
2019-02-09T19:05:31.139Z,6.80
2019-02-09T19:08:19.004Z,6.80
2019-02-09T19:11:06.875Z,6.80
2019-02-09T19:13:54.715Z,6.80
2019-02-09T19:16:35.810Z,6.80
2019-02-09T19:19:16.107Z,6.80
2019-02-09T19:21:44.645Z,6.70
2019-02-09T19:24:32.481Z,6.70
2019-02-09T19:27:20.400Z,6.60
2019-02-09T19:30:27.549Z,6.60
2019-02-09T19:33:15.390Z,6.50
2019-02-09T19:36:03.316Z,6.50
2019-02-09T19:38:51.229Z,6.40
2019-02-09T19:41:39.176Z,6.40
2019-02-09T19:44:27.504Z,6.40
2019-02-09T19:47:15.338Z,6.30
2019-02-09T19:49:55.634Z,6.30
2019-02-09T19:52:36.828Z,6.20
2019-02-09T19:55:17.781Z,6.20
2019-02-09T19:57:58.497Z,6.10
2019-02-09T20:00:39.080Z,6.10
2019-02-09T20:03:19.656Z,5.90
2019-02-09T20:06:00.410Z,5.80
2019-02-09T20:08:41.454Z,5.80
2019-02-09T20:11:22.425Z,5.70
2019-02-09T20:14:01.292Z,5.60
2019-02-09T20:16:49.079Z,5.60
2019-02-09T20:19:36.914Z,5.50
2019-02-09T20:22:24.727Z,5.50
2019-02-09T20:25:33.270Z,5.50
2019-02-09T20:28:21.090Z,5.50
2019-02-09T20:31:09.069Z,5.50
2019-02-09T20:33:56.913Z,5.50
2019-02-09T20:36:44.773Z,5.50
2019-02-09T20:39:32.685Z,5.50
2019-02-09T20:42:20.483Z,5.40
2019-02-09T20:45:01.069Z,5.40
2019-02-09T20:47:47.765Z,5.30
2019-02-09T20:50:29.586Z,5.30
2019-02-09T20:53:10.045Z,5.30
2019-02-09T20:55:50.418Z,5.30
2019-02-09T20:58:31.276Z,5.20
2019-02-09T21:01:12.487Z,5.20
2019-02-09T21:03:53.627Z,5.10
2019-02-09T21:06:33.907Z,5.00
2019-02-09T21:09:14.990Z,5.00
2019-02-09T21:11:55.640Z,4.90
2019-02-09T21:14:35.934Z,4.90
2019-02-09T21:17:16.919Z,4.80
2019-02-09T21:19:57.974Z,4.80
2019-02-09T21:22:38.448Z,4.70
2019-02-09T21:25:19.401Z,4.60
2019-02-09T21:27:59.936Z,4.60
2019-02-09T21:30:40.442Z,4.60
2019-02-09T21:33:21.452Z,4.60
2019-02-09T21:35:49.910Z,4.50
2019-02-09T21:38:37.710Z,4.40
2019-02-09T21:41:25.549Z,4.40
2019-02-09T21:44:06.136Z,4.40
2019-02-09T21:46:47.056Z,4.40
2019-02-09T21:49:27.507Z,4.30
2019-02-09T21:52:07.881Z,4.20
2019-02-09T21:54:48.850Z,4.20
2019-02-09T21:57:29.210Z,4.10
2019-02-09T22:00:10.521Z,4.10
2019-02-09T22:02:51.685Z,4.10
2019-02-09T22:05:32.479Z,4.00
2019-02-09T22:08:19.303Z,3.90
2019-02-09T22:10:55.977Z,3.90
2019-02-09T22:13:35.362Z,3.80
2019-02-09T22:16:23.184Z,3.80
2019-02-09T22:19:10.980Z,3.80
2019-02-09T22:21:59.044Z,3.70
2019-02-09T22:24:47.206Z,3.60
2019-02-09T22:27:35.042Z,3.60
2019-02-09T22:30:42.185Z,3.40
2019-02-09T22:33:30.074Z,3.30
2019-02-09T22:36:17.958Z,3.30
2019-02-09T22:39:06.531Z,3.30
2019-02-09T22:41:54.327Z,3.20
2019-02-09T22:44:42.167Z,3.20
2019-02-09T22:47:29.967Z,3.10
2019-02-09T22:50:37.125Z,3.10
2019-02-09T22:53:24.918Z,3.10
2019-02-09T22:56:12.749Z,3.00
2019-02-09T22:59:00.589Z,3.00
2019-02-09T23:01:48.648Z,3.00
2019-02-09T23:04:29.706Z,3.10
2019-02-09T23:07:10.056Z,3.10
2019-02-09T23:09:50.787Z,3.10
2019-02-09T23:12:31.341Z,3.10
2019-02-09T23:15:11.844Z,3.10
2019-02-09T23:17:50.798Z,3.10
2019-02-09T23:20:38.589Z,3.10
2019-02-09T23:23:19.738Z,3.00
2019-02-09T23:26:00.566Z,3.10
2019-02-09T23:28:41.054Z,3.10
2019-02-09T23:31:21.605Z,3.10
2019-02-09T23:34:02.501Z,3.10
2019-02-09T23:36:43.614Z,3.00
2019-02-09T23:39:24.081Z,2.90
2019-02-09T23:42:05.009Z,2.90
2019-02-09T23:44:46.423Z,2.90
2019-02-09T23:47:26.811Z,2.80
2019-02-09T23:50:07.980Z,2.80
2019-02-09T23:52:48.977Z,2.80
2019-02-09T23:55:29.920Z,2.70
2019-02-09T23:58:10.518Z,2.70
